Time;durP1;ratioP1;P1;durP2;ratioP2;P2;SDS_P1;SDS_P2;PMS_P1;PMS_P2;Temp;Humidity;BMP_temperature;BMP_pressure;BME280_temperature;BME280_humidity;BME280_pressure;Samples;Min_cycle;Max_cycle;Signal;HPM_P1;HPM_P2
2021/04/25 00:01:02;;;;;;;25.85;9.52;;;;;;;7.12;59.07;102768.00;5059625;28;20049;-73
2021/04/25 00:03:30;;;;;;;23.63;8.65;;;;;;;7.16;58.80;102784.38;5058970;28;20544;-73
2021/04/25 00:05:56;;;;;;;26.05;9.55;;;;;;;7.16;58.80;102777.38;5053640;28;20057;-74
2021/04/25 00:08:22;;;;;;;24.25;8.88;;;;;;;7.19;59.32;102785.03;5034556;28;20459;-74
2021/04/25 00:10:48;;;;;;;23.65;8.85;;;;;;;7.17;58.58;102786.88;5058597;28;20488;-74
2021/04/25 00:13:14;;;;;;;28.75;9.63;;;;;;;7.21;59.18;102784.97;5069300;28;20056;-74
2021/04/25 00:15:40;;;;;;;20.17;8.15;;;;;;;7.26;58.94;102782.97;5058072;28;20079;-74
2021/04/25 00:18:06;;;;;;;29.70;8.93;;;;;;;7.26;59.13;102781.22;5048582;28;20052;-73
2021/04/25 00:20:33;;;;;;;26.60;9.45;;;;;;;7.21;59.38;102772.75;5061513;28;20087;-74
2021/04/25 00:22:59;;;;;;;21.52;7.90;;;;;;;7.29;59.04;102780.19;5051093;28;20063;-74
2021/04/25 00:25:26;;;;;;;25.00;8.88;;;;;;;7.31;59.35;102780.97;5062638;28;20106;-74
2021/04/25 00:27:52;;;;;;;27.45;8.10;;;;;;;7.33;59.33;102776.50;5056254;28;20483;-73
2021/04/25 00:30:20;;;;;;;27.38;9.18;;;;;;;7.34;59.51;102770.38;5061678;28;20814;-74
2021/04/25 00:32:47;;;;;;;24.40;8.25;;;;;;;7.37;58.69;102769.38;5059289;28;20518;-73
2021/04/25 00:35:15;;;;;;;22.05;8.25;;;;;;;7.41;58.49;102766.56;5055362;28;20414;-74
2021/04/25 00:37:42;;;;;;;21.42;7.60;;;;;;;7.45;58.21;102772.47;5062586;28;20841;-73
2021/04/25 00:40:10;;;;;;;27.77;8.10;;;;;;;7.45;58.05;102765.47;5061200;28;20048;-74
2021/04/25 00:42:37;;;;;;;28.05;9.38;;;;;;;7.43;57.99;102769.94;5062308;28;20479;-73
2021/04/25 00:45:08;;;;;;;17.98;7.63;;;;;;;7.43;58.47;102776.88;5038608;28;20075;-73
2021/04/25 00:47:34;;;;;;;23.75;8.63;;;;;;;7.45;57.25;102772.47;5057470;28;20794;-72
2021/04/25 00:50:01;;;;;;;19.60;7.93;;;;;;;7.37;57.63;102759.78;5061809;28;20048;-73
2021/04/25 00:52:27;;;;;;;23.15;8.63;;;;;;;7.36;57.16;102768.53;5055206;28;20063;-73
2021/04/25 00:54:53;;;;;;;25.45;8.90;;;;;;;7.37;57.66;102772.84;5064203;28;20458;-74
2021/04/25 00:57:21;;;;;;;24.13;8.65;;;;;;;7.29;57.88;102765.41;5056800;28;20040;-73
2021/04/25 00:59:47;;;;;;;24.80;8.77;;;;;;;7.28;57.55;102770.69;5059448;28;20056;-73
2021/04/25 01:02:13;;;;;;;21.05;8.15;;;;;;;7.30;57.07;102772.28;5043916;28;20076;-72
2021/04/25 01:04:39;;;;;;;19.30;7.53;;;;;;;7.20;57.75;102765.84;5061577;28;20122;-73
2021/04/25 01:07:05;;;;;;;21.15;8.30;;;;;;;7.15;57.63;102773.06;5062343;28;20070;-73
2021/04/25 01:09:32;;;;;;;19.73;8.52;;;;;;;7.09;57.99;102763.75;5056519;28;20052;-73
2021/04/25 01:11:58;;;;;;;23.65;7.53;;;;;;;7.04;57.78;102772.78;5044991;28;20040;-73
2021/04/25 01:14:24;;;;;;;20.27;7.70;;;;;;;7.04;57.98;102771.00;5051149;28;20125;-73
2021/04/25 01:16:50;;;;;;;24.35;7.82;;;;;;;7.00;58.01;102766.84;5042676;28;20843;-73
2021/04/25 01:19:16;;;;;;;24.73;7.50;;;;;;;6.94;58.07;102774.97;5058935;28;20052;-73
2021/04/25 01:21:42;;;;;;;26.42;8.25;;;;;;;6.93;58.23;102768.91;5059268;28;20048;-73
2021/04/25 01:24:09;;;;;;;22.63;8.40;;;;;;;6.85;58.83;102764.97;5060306;28;20467;-73
2021/04/25 01:26:35;;;;;;;24.70;7.88;;;;;;;6.81;58.22;102774.72;5054983;28;20083;-73
2021/04/25 01:29:02;;;;;;;24.65;8.05;;;;;;;6.77;57.70;102770.56;5055399;28;20044;-73
2021/04/25 01:31:28;;;;;;;24.25;6.93;;;;;;;6.82;57.66;102772.94;5055340;28;20148;-72
2021/04/25 01:33:54;;;;;;;18.48;7.57;;;;;;;6.78;57.80;102771.41;5061326;28;20151;-72
2021/04/25 01:36:22;;;;;;;18.38;6.78;;;;;;;6.72;57.87;102769.94;5060905;28;20059;-73
2021/04/25 01:38:48;;;;;;;21.02;6.88;;;;;;;6.68;57.35;102776.22;5061762;28;20055;-73
2021/04/25 01:41:14;;;;;;;25.13;6.70;;;;;;;6.62;58.00;102773.91;5057257;28;20063;-74
2021/04/25 01:43:40;;;;;;;23.58;7.68;;;;;;;6.58;57.73;102772.38;5032301;28;20368;-73
2021/04/25 01:46:06;;;;;;;19.95;6.47;;;;;;;6.52;57.16;102768.28;5043396;28;20048;-73
2021/04/25 01:48:32;;;;;;;16.38;6.68;;;;;;;6.43;57.00;102768.69;5054946;28;20052;-74
2021/04/25 01:50:58;;;;;;;19.13;6.07;;;;;;;6.39;56.98;102769.75;5056728;28;20045;-72
2021/04/25 01:53:24;;;;;;;22.20;6.38;;;;;;;6.36;57.86;102765.56;5060456;28;20080;-73
2021/04/25 01:55:50;;;;;;;17.80;6.05;;;;;;;6.30;57.23;102760.63;5054095;28;20126;-73
2021/04/25 01:58:16;;;;;;;27.38;6.60;;;;;;;6.34;57.30;102768.22;5040789;28;20440;-73
2021/04/25 02:00:44;;;;;;;17.55;5.88;;;;;;;6.29;57.14;102772.81;5054760;28;20044;-73
2021/04/25 02:03:11;;;;;;;14.00;5.10;;;;;;;6.32;57.77;102766.59;5044799;28;20494;-73
2021/04/25 02:05:39;;;;;;;26.23;5.85;;;;;;;6.37;57.31;102767.25;5055653;28;20168;-73
2021/04/25 02:08:07;;;;;;;12.63;4.75;;;;;;;6.30;56.71;102760.63;5041290;28;20052;-74
2021/04/25 02:10:34;;;;;;;15.77;5.38;;;;;;;6.31;57.40;102768.38;5056639;28;20072;-73
2021/04/25 02:13:00;;;;;;;16.10;5.63;;;;;;;6.33;57.09;102770.88;5052709;28;20527;-73
2021/04/25 02:15:26;;;;;;;16.85;4.78;;;;;;;6.32;57.21;102761.41;5044128;28;20055;-73
2021/04/25 02:17:53;;;;;;;14.77;5.72;;;;;;;6.20;57.32;102775.00;5056185;28;20170;-73
2021/04/25 02:20:22;;;;;;;11.60;4.75;;;;;;;6.24;57.40;102774.78;5061040;28;20131;-73
2021/04/25 02:22:49;;;;;;;16.23;5.05;;;;;;;6.21;56.67;102771.47;5049584;28;20045;-73
2021/04/25 02:25:17;;;;;;;12.73;4.93;;;;;;;6.19;57.03;102768.91;5053924;28;20053;-73
2021/04/25 02:27:44;;;;;;;19.58;5.57;;;;;;;6.14;57.28;102771.75;5058527;28;20056;-73
2021/04/25 02:30:20;;;;;;;14.63;5.47;;;;;;;6.17;56.94;102773.34;5043119;28;20779;-73
2021/04/25 02:32:47;;;;;;;18.92;5.82;;;;;;;6.13;56.69;102777.03;5060633;28;20052;-73
2021/04/25 02:35:14;;;;;;;15.90;5.00;;;;;;;6.12;57.00;102778.78;5037949;28;20072;-73
2021/04/25 02:37:41;;;;;;;16.58;5.13;;;;;;;6.14;57.50;102781.34;5058075;28;20076;-72
2021/04/25 02:40:14;;;;;;;15.63;5.22;;;;;;;6.09;56.99;102775.47;5051003;28;20793;-72
2021/04/25 02:42:41;;;;;;;18.27;5.65;;;;;;;6.09;56.57;102775.47;5059400;28;20056;-72
2021/04/25 02:45:14;;;;;;;20.35;6.28;;;;;;;6.07;56.65;102775.53;5055424;28;20769;-73
2021/04/25 02:47:46;;;;;;;17.15;4.90;;;;;;;5.97;56.67;102769.06;5060130;28;20602;-73
2021/04/25 02:50:14;;;;;;;18.05;5.10;;;;;;;5.98;56.99;102765.56;5059463;28;20086;-73
2021/04/25 02:52:40;;;;;;;13.40;4.55;;;;;;;5.90;56.32;102768.47;5048131;28;20109;-73
2021/04/25 02:55:07;;;;;;;12.85;4.90;;;;;;;5.92;56.44;102769.25;5044565;28;20053;-72
2021/04/25 02:57:33;;;;;;;17.50;5.15;;;;;;;5.86;56.56;102772.13;5054871;28;20056;-73
2021/04/25 02:59:59;;;;;;;18.90;5.70;;;;;;;5.87;57.13;102772.97;5063995;28;20598;-72
2021/04/25 03:02:25;;;;;;;14.75;5.50;;;;;;;5.72;56.98;102767.50;5061242;28;20044;-73
2021/04/25 03:04:52;;;;;;;20.60;5.32;;;;;;;5.74;56.90;102772.63;5063728;28;20063;-72
2021/04/25 03:07:18;;;;;;;15.63;5.13;;;;;;;5.69;56.44;102767.63;5059041;28;20138;-72
2021/04/25 03:09:44;;;;;;;13.88;5.07;;;;;;;5.65;56.52;102771.28;5057443;28;20053;-72
2021/04/25 03:12:10;;;;;;;23.15;6.25;;;;;;;5.65;56.11;102773.91;5066453;28;20097;-72
2021/04/25 03:14:36;;;;;;;14.15;4.38;;;;;;;5.66;56.65;102772.13;5060756;28;21030;-72
2021/04/25 03:17:02;;;;;;;16.25;5.10;;;;;;;5.63;56.21;102775.72;5064091;28;20094;-72
2021/04/25 03:19:29;;;;;;;17.60;4.63;;;;;;;5.64;56.70;102769.59;5057102;28;20771;-73
2021/04/25 03:21:55;;;;;;;19.92;5.75;;;;;;;5.69;56.49;102772.00;5059351;28;20572;-72
2021/04/25 03:24:21;;;;;;;15.70;4.75;;;;;;;5.72;56.52;102764.91;5045602;28;20052;-72
2021/04/25 03:26:47;;;;;;;18.83;4.80;;;;;;;5.73;55.86;102763.16;5058805;28;20055;-72
2021/04/25 03:29:13;;;;;;;12.55;4.65;;;;;;;5.77;56.35;102762.09;5059479;28;20084;-72
2021/04/25 03:31:40;;;;;;;15.55;4.70;;;;;;;5.80;56.59;102758.50;5058209;28;20173;-72
2021/04/25 03:34:06;;;;;;;12.73;4.10;;;;;;;5.83;55.95;102756.63;5060501;28;20466;-72
2021/04/25 03:36:33;;;;;;;11.57;4.55;;;;;;;5.87;56.13;102750.34;5056067;28;20052;-71
2021/04/25 03:38:59;;;;;;;13.30;4.25;;;;;;;5.94;56.02;102748.34;5060829;28;20057;-72
2021/04/25 03:41:28;;;;;;;11.07;4.35;;;;;;;5.97;56.28;102758.63;5055414;28;20049;-71
2021/04/25 03:43:54;;;;;;;;;;;;;;;5.98;56.75;102751.66;5059299;28;20507;-72
2021/04/25 03:46:20;;;;;;;14.30;3.83;;;;;;;6.02;55.84;102748.88;5062892;28;19924;-71
2021/04/25 03:48:46;;;;;;;16.52;4.88;;;;;;;6.04;56.32;102748.81;5053199;28;20083;-72
2021/04/25 03:51:12;;;;;;;12.13;4.53;;;;;;;6.08;55.74;102752.94;5063367;28;20067;-72
2021/04/25 03:53:38;;;;;;;13.32;4.30;;;;;;;6.08;56.17;102752.94;5058564;28;20486;-72
2021/04/25 03:56:04;;;;;;;21.10;5.22;;;;;;;6.12;55.95;102752.72;5066259;28;20587;-71
2021/04/25 03:58:31;;;;;;;13.73;4.53;;;;;;;6.17;56.22;102760.31;5064449;28;20063;-71
2021/04/25 04:00:57;;;;;;;17.98;4.78;;;;;;;6.18;55.97;102748.16;5052868;28;20539;-71
2021/04/25 04:03:23;;;;;;;22.20;4.22;;;;;;;6.21;55.77;102750.63;5064254;28;20067;-72
2021/04/25 04:05:49;;;;;;;14.55;4.28;;;;;;;6.26;55.49;102759.06;5058987;28;20500;-72
2021/04/25 04:08:15;;;;;;;15.15;4.05;;;;;;;6.21;55.29;102764.47;5062884;28;20529;-72
2021/04/25 04:10:41;;;;;;;11.98;3.80;;;;;;;6.27;55.70;102764.22;5056121;28;20068;-72
2021/04/25 04:13:07;;;;;;;15.30;4.43;;;;;;;6.31;55.83;102764.91;5061837;28;20095;-72
2021/04/25 04:15:33;;;;;;;15.40;4.15;;;;;;;6.32;55.25;102759.63;5058413;28;20558;-72
2021/04/25 04:17:59;;;;;;;12.25;4.05;;;;;;;6.34;55.72;102764.78;5053961;28;20686;-73
2021/04/25 04:20:25;;;;;;;10.77;4.00;;;;;;;6.33;55.57;102760.47;5063302;28;20075;-72
2021/04/25 04:22:52;;;;;;;15.35;4.10;;;;;;;6.35;54.76;102761.28;5051272;28;20067;-72
2021/04/25 04:25:18;;;;;;;15.25;4.22;;;;;;;6.28;55.18;102752.88;5063168;28;20060;-72
2021/04/25 04:27:44;;;;;;;12.82;4.50;;;;;;;6.31;54.45;102752.75;5058373;28;20118;-72
2021/04/25 04:30:10;;;;;;;9.15;3.40;;;;;;;6.33;54.74;102761.34;5062457;28;20415;-72
2021/04/25 04:32:36;;;;;;;11.65;3.63;;;;;;;6.32;54.09;102750.97;5058691;28;20717;-72
2021/04/25 04:35:03;;;;;;;21.02;4.13;;;;;;;6.27;54.14;102750.31;5058310;28;20057;-72
2021/04/25 04:37:29;;;;;;;15.65;3.13;;;;;;;6.38;54.08;102760.28;5044251;28;20045;-72
2021/04/25 04:39:56;;;;;;;10.05;3.55;;;;;;;6.40;54.77;102755.84;5057914;28;20076;-72
2021/04/25 04:42:22;;;;;;;10.88;3.40;;;;;;;6.40;54.47;102761.88;5061777;28;20076;-72
2021/04/25 04:44:48;;;;;;;7.55;2.75;;;;;;;6.41;54.26;102754.91;5030456;28;20068;-72
2021/04/25 04:47:14;;;;;;;11.75;3.22;;;;;;;6.46;53.76;102772.00;5062860;28;20106;-72
2021/04/25 04:49:40;;;;;;;15.02;4.28;;;;;;;6.39;53.58;102765.41;5063751;28;20075;-71
2021/04/25 04:52:06;;;;;;;11.82;3.00;;;;;;;6.33;53.40;102760.47;5056285;28;20048;-72
2021/04/25 04:54:32;;;;;;;9.43;3.28;;;;;;;6.32;53.06;102764.00;5063274;28;20380;-72
2021/04/25 04:56:58;;;;;;;12.57;3.13;;;;;;;6.30;53.02;102751.03;5051063;28;20064;-72
2021/04/25 04:59:24;;;;;;;12.05;2.70;;;;;;;6.39;53.54;102767.16;5054721;28;20086;-72
2021/04/25 05:01:51;;;;;;;14.05;3.42;;;;;;;6.38;52.85;102770.69;5057697;28;20048;-72
2021/04/25 05:04:17;;;;;;;19.08;3.95;;;;;;;6.44;53.04;102768.63;5065513;28;20155;-72
2021/04/25 05:06:43;;;;;;;8.07;2.63;;;;;;;6.39;52.41;102769.75;5062953;28;20542;-72
2021/04/25 05:09:09;;;;;;;11.45;3.33;;;;;;;6.36;52.48;102765.56;5057137;28;20056;-72
2021/04/25 05:11:36;;;;;;;10.05;3.17;;;;;;;6.39;52.79;102768.03;5059321;28;20127;-72
2021/04/25 05:14:02;;;;;;;8.65;2.33;;;;;;;6.42;52.81;102772.25;5052868;28;20064;-72
2021/04/25 05:16:28;;;;;;;8.18;2.60;;;;;;;6.42;53.10;102760.03;5061963;28;20044;-72
2021/04/25 05:18:55;;;;;;;12.05;2.85;;;;;;;6.51;52.97;102770.06;5055153;28;20937;-72
2021/04/25 05:21:21;;;;;;;13.68;2.75;;;;;;;6.54;53.19;102769.88;5043750;28;20064;-71
2021/04/25 05:23:47;;;;;;;16.75;3.63;;;;;;;6.63;53.70;102771.22;5057198;28;20053;-71
2021/04/25 05:26:14;;;;;;;11.23;3.03;;;;;;;6.64;52.68;102761.63;5052353;28;20059;-72
2021/04/25 05:28:40;;;;;;;12.73;3.70;;;;;;;6.68;52.86;102769.25;5061722;28;20090;-71
2021/04/25 05:31:06;;;;;;;12.52;3.13;;;;;;;6.66;52.65;102771.06;5057226;28;20048;-72
2021/04/25 05:33:32;;;;;;;33.22;3.63;;;;;;;6.65;52.51;102773.78;5071366;28;20071;-72
2021/04/25 05:35:58;;;;;;;11.25;3.15;;;;;;;6.63;52.58;102770.41;5056946;28;20129;-73
2021/04/25 05:38:24;;;;;;;11.65;2.97;;;;;;;6.61;52.59;102775.69;5057573;28;20106;-72
2021/04/25 05:40:51;;;;;;;14.15;2.92;;;;;;;6.63;52.23;102773.00;5057057;28;20102;-72
2021/04/25 05:43:17;;;;;;;15.98;3.10;;;;;;;6.65;52.95;102784.22;5054590;28;20102;-72
2021/04/25 05:45:43;;;;;;;11.60;2.60;;;;;;;6.67;52.70;102791.03;5062404;28;20095;-72
2021/04/25 05:48:09;;;;;;;8.60;2.85;;;;;;;6.73;52.80;102782.91;5057443;28;20450;-73
2021/04/25 05:50:35;;;;;;;14.13;3.13;;;;;;;6.79;52.89;102787.00;5059824;28;20487;-72
2021/04/25 05:53:02;;;;;;;12.07;3.30;;;;;;;6.86;53.59;102796.22;5051396;28;20083;-71
2021/04/25 05:55:28;;;;;;;12.73;3.08;;;;;;;6.91;52.51;102790.78;5061600;28;20154;-71
2021/04/25 05:57:54;;;;;;;15.23;3.35;;;;;;;6.96;52.29;102800.97;5061808;28;20052;-72
2021/04/25 06:00:26;;;;;;;12.52;3.40;;;;;;;6.99;52.98;102796.47;5055834;28;20797;-72
2021/04/25 06:02:56;;;;;;;12.25;3.75;;;;;;;6.95;52.81;102794.91;5062022;28;20060;-72
2021/04/25 06:05:22;;;;;;;15.55;3.92;;;;;;;6.95;52.04;102789.69;5050163;28;20126;-72
2021/04/25 06:07:52;;;;;;;17.15;3.40;;;;;;;7.03;52.14;102803.22;5050484;28;20110;-73
2021/04/25 06:10:20;;;;;;;18.73;3.85;;;;;;;6.99;52.46;102786.03;5053979;28;20411;-72
2021/04/25 06:12:48;;;;;;;11.15;3.55;;;;;;;7.05;51.80;102793.53;5059577;28;20455;-72
2021/04/25 06:15:17;;;;;;;17.70;4.00;;;;;;;7.15;52.32;102804.38;5045251;28;20044;-71
2021/04/25 06:17:43;;;;;;;13.30;3.45;;;;;;;7.21;52.70;102803.22;5035255;28;20293;-73
2021/04/25 06:20:12;;;;;;;18.30;3.00;;;;;;;7.23;51.83;102804.88;5040620;28;20549;-73
2021/04/25 06:22:44;;;;;;;21.27;3.05;;;;;;;7.29;52.12;102808.91;5027884;28;20080;-72
2021/04/25 06:25:11;;;;;;;10.98;3.53;;;;;;;7.35;52.19;102813.84;5060002;28;20076;-72
2021/04/25 06:27:39;;;;;;;16.00;3.78;;;;;;;7.38;51.79;102821.53;5039127;28;20059;-73
2021/04/25 06:30:07;;;;;;;13.30;3.25;;;;;;;7.47;52.68;102823.69;5061502;28;20432;-72
2021/04/25 06:32:34;;;;;;;14.57;3.70;;;;;;;7.55;52.50;102819.81;5054515;28;20375;-72
2021/04/25 06:35:00;;;;;;;12.93;3.35;;;;;;;7.48;51.93;102822.75;5049490;28;20110;-72
2021/04/25 06:37:26;;;;;;;11.43;2.72;;;;;;;7.57;51.43;102824.06;5044222;28;20056;-71
2021/04/25 06:39:53;;;;;;;13.88;3.00;;;;;;;7.51;51.63;102833.06;5056239;28;20060;-72
2021/04/25 06:42:19;;;;;;;17.75;3.08;;;;;;;7.52;51.04;102832.09;5038652;28;20071;-71
2021/04/25 06:44:45;;;;;;;14.65;3.38;;;;;;;7.56;51.40;102832.81;5055798;28;20068;-72
2021/04/25 06:47:11;;;;;;;10.50;2.38;;;;;;;7.55;51.82;102828.53;5055304;28;20056;-71
2021/04/25 06:49:38;;;;;;;14.50;3.35;;;;;;;7.66;51.13;102833.19;5057571;28;20056;-72
2021/04/25 06:52:04;;;;;;;10.40;3.03;;;;;;;7.70;51.29;102822.53;5054318;28;20506;-74
2021/04/25 06:54:30;;;;;;;15.82;2.70;;;;;;;7.75;51.29;102824.88;5058324;28;20076;-72
2021/04/25 06:56:56;;;;;;;11.55;2.80;;;;;;;7.82;50.83;102830.63;5037472;28;20451;-71
2021/04/25 06:59:22;;;;;;;15.68;4.20;;;;;;;7.86;50.14;102834.78;5054951;28;20056;-72
2021/04/25 07:01:49;;;;;;;12.18;2.83;;;;;;;7.79;50.36;102834.25;5040667;28;20052;-71
2021/04/25 07:04:15;;;;;;;11.57;2.40;;;;;;;7.86;50.63;102846.09;5054472;28;20080;-72
2021/04/25 07:06:41;;;;;;;12.02;2.25;;;;;;;7.83;49.93;102825.31;5062444;28;20740;-71
2021/04/25 07:09:08;;;;;;;10.88;2.38;;;;;;;7.89;49.58;102845.06;5054259;28;20056;-71
2021/04/25 07:11:35;;;;;;;12.70;2.15;;;;;;;7.99;49.67;102846.28;5062621;28;20075;-71
2021/04/25 07:14:01;;;;;;;9.95;2.40;;;;;;;8.06;49.87;102839.81;5048944;28;20056;-71
2021/04/25 07:16:27;;;;;;;7.25;2.05;;;;;;;8.13;50.08;102853.41;5041793;28;20106;-71
2021/04/25 07:18:53;;;;;;;10.93;2.33;;;;;;;8.20;49.30;102841.69;5054026;28;20451;-71
2021/04/25 07:21:19;;;;;;;10.30;2.40;;;;;;;8.24;49.52;102838.00;5042441;28;20048;-71
2021/04/25 07:23:45;;;;;;;19.70;2.42;;;;;;;8.37;48.94;102846.03;5050805;28;20622;-71
2021/04/25 07:26:12;;;;;;;13.43;2.42;;;;;;;8.42;49.24;102845.81;5052378;28;20052;-71
2021/04/25 07:28:39;;;;;;;9.40;2.10;;;;;;;8.45;49.11;102843.06;5048317;28;20099;-73
2021/04/25 07:31:05;;;;;;;11.07;2.55;;;;;;;8.55;49.26;102851.25;5031000;28;20052;-71
2021/04/25 07:33:32;;;;;;;14.02;2.65;;;;;;;8.54;48.38;102841.69;5058675;28;20106;-72
2021/04/25 07:35:59;;;;;;;8.90;1.77;;;;;;;8.59;48.54;102845.75;5060957;28;20479;-71
2021/04/25 07:38:26;;;;;;;11.23;2.15;;;;;;;8.59;48.27;102839.69;5068257;28;20048;-71
2021/04/25 07:40:53;;;;;;;10.95;2.58;;;;;;;8.53;48.42;102840.84;5060151;28;20476;-71
2021/04/25 07:43:19;;;;;;;12.65;2.55;;;;;;;8.60;48.80;102851.81;5048810;28;20110;-72
2021/04/25 07:45:45;;;;;;;8.43;2.17;;;;;;;8.61;48.50;102840.44;5059149;28;20470;-72
2021/04/25 07:48:11;;;;;;;12.23;2.80;;;;;;;8.69;48.00;102838.25;5058345;28;20459;-72
2021/04/25 07:50:37;;;;;;;8.75;2.00;;;;;;;8.79;48.14;102838.56;5044953;28;20056;-72
2021/04/25 07:53:05;;;;;;;10.90;2.40;;;;;;;8.89;47.94;102837.97;5062295;28;20121;-72
2021/04/25 07:55:31;;;;;;;12.48;3.63;;;;;;;9.00;47.61;102841.78;5059694;28;20056;-72
2021/04/25 07:57:57;;;;;;;16.63;3.40;;;;;;;9.02;47.29;102848.59;5061604;28;20050;-72
2021/04/25 08:00:23;;;;;;;12.80;2.47;;;;;;;8.96;46.87;102846.34;5054707;28;20102;-72
2021/04/25 08:02:49;;;;;;;6.15;2.20;;;;;;;9.05;47.15;102845.78;5033732;28;20133;-73
2021/04/25 08:05:15;;;;;;;13.02;2.90;;;;;;;9.13;47.42;102849.75;5057065;28;20155;-72
2021/04/25 08:07:41;;;;;;;12.25;2.60;;;;;;;9.24;47.88;102847.38;5065127;28;20044;-72
2021/04/25 08:10:08;;;;;;;12.07;2.42;;;;;;;9.30;47.50;102853.09;5057916;28;20055;-72
2021/04/25 08:12:34;;;;;;;11.60;2.50;;;;;;;9.36;47.21;102844.03;5061677;28;20052;-72
2021/04/25 08:15:01;;;;;;;14.63;2.30;;;;;;;9.37;47.24;102845.75;5062246;28;20054;-72
2021/04/25 08:17:27;;;;;;;20.65;2.70;;;;;;;9.39;47.16;102846.50;5048158;28;20044;-72
2021/04/25 08:19:53;;;;;;;12.57;2.33;;;;;;;9.32;46.80;102850.41;5058029;28;20048;-72
2021/04/25 08:22:19;;;;;;;8.73;2.20;;;;;;;9.37;47.07;102850.97;5049234;28;20053;-71
2021/04/25 08:24:45;;;;;;;12.88;3.33;;;;;;;9.40;47.10;102840.31;5058374;28;20066;-72
2021/04/25 08:27:11;;;;;;;9.85;3.20;;;;;;;9.50;47.01;102838.84;5060429;28;20610;-71
2021/04/25 08:29:37;;;;;;;7.65;1.95;;;;;;;9.50;46.60;102843.25;5056500;28;20052;-71
2021/04/25 08:32:03;;;;;;;8.95;2.78;;;;;;;9.64;46.99;102840.66;5059956;28;20458;-71
2021/04/25 08:34:30;;;;;;;11.90;2.47;;;;;;;9.67;46.70;102837.84;5055426;28;20933;-72
2021/04/25 08:36:56;;;;;;;8.13;2.10;;;;;;;9.72;46.25;102841.97;5063246;28;20835;-72
2021/04/25 08:39:22;;;;;;;14.27;2.10;;;;;;;9.80;45.86;102832.72;5054471;28;20063;-72
2021/04/25 08:41:48;;;;;;;8.75;1.90;;;;;;;10.05;45.65;102842.56;5044081;28;20118;-71
2021/04/25 08:44:19;;;;;;;9.88;2.15;;;;;;;10.13;44.85;102836.84;5059127;28;20134;-72
2021/04/25 08:46:47;;;;;;;12.23;2.10;;;;;;;10.19;44.64;102843.50;5044637;28;20084;-72
2021/04/25 08:49:16;;;;;;;10.13;2.20;;;;;;;10.24;45.16;102833.56;5056195;28;20048;-72
2021/04/25 08:51:43;;;;;;;13.77;2.72;;;;;;;10.37;45.53;102841.53;5033072;28;20076;-71
2021/04/25 08:54:14;;;;;;;17.70;2.25;;;;;;;10.38;44.48;102833.59;5058496;28;20056;-72
2021/04/25 08:56:40;;;;;;;17.02;2.45;;;;;;;10.35;44.65;102840.78;5042075;28;20052;-72
2021/04/25 08:59:07;;;;;;;18.48;2.50;;;;;;;10.45;44.47;102837.53;5059044;28;20451;-72
2021/04/25 09:01:33;;;;;;;12.00;2.53;;;;;;;10.52;44.21;102839.75;5053581;28;20699;-73
2021/04/25 09:04:00;;;;;;;11.32;2.58;;;;;;;10.68;44.52;102837.84;5059537;28;20048;-74
2021/04/25 09:06:26;;;;;;;18.33;3.13;;;;;;;10.84;45.11;102829.84;5058336;28;20139;-73
2021/04/25 09:08:57;;;;;;;12.68;2.58;;;;;;;10.95;43.79;102831.75;5055653;28;20095;-73
2021/04/25 09:11:23;;;;;;;17.10;2.78;;;;;;;10.97;43.55;102827.25;5044504;28;20582;-72
2021/04/25 09:14:17;;;;;;;14.65;2.08;;;;;;;11.01;42.97;102832.19;5056705;28;20649;-73
2021/04/25 09:17:01;;;;;;;15.52;3.80;;;;;;;11.06;43.75;102839.78;5060238;28;20143;-72
2021/04/25 09:19:53;;;;;;;13.32;2.85;;;;;;;11.04;42.38;102833.78;5045833;28;20048;-72
2021/04/25 09:22:21;;;;;;;11.63;2.50;;;;;;;11.13;42.17;102827.09;5056545;28;20056;-72
2021/04/25 09:24:48;;;;;;;14.95;3.20;;;;;;;11.19;42.76;102824.91;5056648;28;20056;-73
2021/04/25 09:27:27;;;;;;;16.88;2.50;;;;;;;11.30;42.65;102825.97;5063498;28;20076;-72
2021/04/25 09:29:58;;;;;;;13.68;2.75;;;;;;;11.38;42.16;102814.00;5063891;28;20052;-72
2021/04/25 09:32:26;;;;;;;17.42;2.92;;;;;;;11.37;42.40;102820.22;5050097;28;20104;-72
2021/04/25 09:35:10;;;;;;;15.75;3.03;;;;;;;11.44;42.30;102831.16;5041122;28;20055;-72
2021/04/25 09:37:38;;;;;;;15.10;3.08;;;;;;;11.53;42.25;102825.28;5056209;28;20052;-72
2021/04/25 09:40:14;;;;;;;11.82;2.50;;;;;;;11.73;42.27;102825.72;5060451;28;20052;-72
2021/04/25 09:42:58;;;;;;;15.55;2.40;;;;;;;12.29;40.74;102820.09;5042498;28;20052;-72
2021/04/25 09:45:34;;;;;;;14.07;3.20;;;;;;;12.47;40.82;102821.44;5067973;28;20052;-72
2021/04/25 09:48:01;;;;;;;18.55;4.18;;;;;;;12.45;40.29;102825.97;5058890;28;20106;-73
2021/04/25 09:50:31;;;;;;;12.77;3.17;;;;;;;12.40;40.69;102828.91;5067176;28;20045;-72
2021/04/25 09:52:57;;;;;;;13.93;3.30;;;;;;;12.27;41.25;102825.50;5069394;28;20051;-72
2021/04/25 09:55:28;;;;;;;12.73;2.85;;;;;;;12.36;40.48;102823.97;5064981;28;20056;-73
2021/04/25 09:57:57;;;;;;;15.23;2.92;;;;;;;12.51;40.95;102817.63;5061003;28;20391;-73
2021/04/25 10:00:37;;;;;;;12.27;2.38;;;;;;;12.60;40.83;102824.88;5055473;28;20732;-75
2021/04/25 10:03:11;;;;;;;15.27;2.80;;;;;;;12.68;40.59;102820.81;5058486;28;20155;-73
2021/04/25 10:05:39;;;;;;;13.18;2.97;;;;;;;12.63;39.50;102827.28;5054518;28;20060;-73
2021/04/25 10:08:05;;;;;;;13.85;2.55;;;;;;;12.53;40.53;102820.16;5058094;28;20529;-72
2021/04/25 10:10:32;;;;;;;14.07;2.63;;;;;;;12.46;39.89;102819.75;5055998;28;20418;-72
2021/04/25 10:12:59;;;;;;;12.20;2.63;;;;;;;12.53;40.36;102810.47;5061396;28;20061;-73
2021/04/25 10:15:25;;;;;;;12.15;2.45;;;;;;;12.45;39.90;102810.19;5044352;28;20064;-74
2021/04/25 10:17:55;;;;;;;14.90;3.15;;;;;;;12.53;41.08;102814.91;5052263;28;20109;-73
2021/04/25 10:20:23;;;;;;;16.30;3.28;;;;;;;12.68;39.63;102819.03;5060422;28;20106;-73
2021/04/25 10:22:51;;;;;;;23.10;3.17;;;;;;;12.66;38.89;102803.34;5054493;28;20052;-73
2021/04/25 10:25:20;;;;;;;26.23;3.25;;;;;;;12.81;40.11;102811.09;5058689;28;20101;-73
2021/04/25 10:27:58;;;;;;;13.88;4.40;;;;;;;13.15;38.96;102809.44;5053077;28;20212;-73
2021/04/25 10:30:36;;;;;;;15.48;3.10;;;;;;;13.17;39.18;102810.16;5048033;28;20060;-73
2021/04/25 10:33:03;;;;;;;12.10;2.58;;;;;;;13.21;38.88;102803.72;5057450;28;20170;-73
2021/04/25 10:35:33;;;;;;;25.93;5.07;;;;;;;13.27;39.27;102802.41;5037453;28;20114;-73
2021/04/25 10:38:01;;;;;;;14.63;3.58;;;;;;;13.89;37.95;102795.91;5059360;28;20471;-72
2021/04/25 10:40:32;;;;;;;12.70;2.80;;;;;;;14.43;36.37;102796.94;5055273;28;20131;-72
2021/04/25 10:43:02;;;;;;;13.55;3.83;;;;;;;14.39;36.80;102785.78;5059806;28;20057;-72
2021/04/25 10:45:33;;;;;;;18.13;3.33;;;;;;;14.40;36.70;102790.09;5048670;28;20083;-72
2021/04/25 10:48:19;;;;;;;14.18;3.83;;;;;;;14.15;36.73;102785.97;5061753;28;20052;-72
2021/04/25 10:51:12;;;;;;;13.45;3.25;;;;;;;14.14;36.72;102791.34;5049321;28;20048;-72
2021/04/25 10:53:41;;;;;;;17.05;3.30;;;;;;;14.06;36.46;102786.69;5059455;28;20052;-72
2021/04/25 10:56:20;;;;;;;13.18;4.20;;;;;;;13.97;37.15;102792.69;5052948;28;20512;-72
2021/04/25 10:59:07;;;;;;;17.27;3.35;;;;;;;13.82;36.87;102769.19;5057910;28;20130;-72
2021/04/25 11:01:37;;;;;;;16.63;3.08;;;;;;;13.96;37.14;102788.38;5060046;28;20048;-73
2021/04/25 11:04:03;;;;;;;12.43;2.97;;;;;;;14.09;36.81;102778.50;5048308;28;20075;-72
2021/04/25 11:06:29;;;;;;;10.98;2.70;;;;;;;14.49;36.39;102767.41;5041273;28;20052;-77
2021/04/25 11:08:56;;;;;;;14.55;2.78;;;;;;;14.88;36.37;102770.41;5054628;28;20118;-72
2021/04/25 11:11:37;;;;;;;15.38;2.97;;;;;;;14.87;35.88;102768.72;5041624;28;20278;-72
2021/04/25 11:14:05;;;;;;;19.23;3.95;;;;;;;14.94;35.88;102764.63;5054259;28;20118;-72
2021/04/25 11:16:33;;;;;;;15.65;3.42;;;;;;;15.02;36.29;102756.88;5039444;28;20095;-72
2021/04/25 11:19:02;;;;;;;12.63;3.28;;;;;;;14.97;36.09;102758.22;5035517;28;20094;-72
2021/04/25 11:21:35;;;;;;;16.77;3.08;;;;;;;14.98;35.28;102762.56;5061914;28;20598;-72
2021/04/25 11:24:02;;;;;;;14.10;3.67;;;;;;;15.06;35.71;102754.81;5064513;28;20052;-73
2021/04/25 11:26:37;;;;;;;16.90;3.20;;;;;;;15.03;35.57;102758.56;5058403;28;20131;-74